createdAt,value
2023-02-24T00:02:06.137Z,48.50
2023-02-24T00:04:39.669Z,47.20
2023-02-24T00:07:12.772Z,47.10
2023-02-24T00:09:40.713Z,47.10
2023-02-24T00:12:13.268Z,46.30
2023-02-24T00:14:43.690Z,47.70
2023-02-24T00:17:15.781Z,48.00
2023-02-24T00:19:44.095Z,48.20
2023-02-24T00:22:12.793Z,48.30
2023-02-24T00:24:41.353Z,48.10
2023-02-24T00:27:12.130Z,47.50
2023-02-24T00:32:13.625Z,46.30
2023-02-24T00:34:42.092Z,52.10
2023-02-24T00:37:10.148Z,52.50
2023-02-24T00:39:41.544Z,53.30
2023-02-24T00:42:12.179Z,50.70
2023-02-24T00:44:49.782Z,47.60
2023-02-24T00:47:18.413Z,47.70
2023-02-24T00:49:46.554Z,47.50
2023-02-24T00:52:19.202Z,47.50
2023-02-24T00:54:49.262Z,47.10
2023-02-24T00:57:18.826Z,47.10
2023-02-24T00:59:51.564Z,48.30
2023-02-24T01:02:20.465Z,45.50
2023-02-24T01:04:50.044Z,45.30
2023-02-24T01:07:18.056Z,44.30
2023-02-24T01:09:46.266Z,40.50
2023-02-24T01:12:32.894Z,41.10
2023-02-24T01:15:05.276Z,38.60
2023-02-24T01:17:36.303Z,38.30
2023-02-24T01:20:16.780Z,36.80
2023-02-24T01:22:56.806Z,35.90
2023-02-24T01:25:25.188Z,34.50
2023-02-24T01:27:54.583Z,35.30
2023-02-24T01:30:22.786Z,35.70
2023-02-24T01:32:51.968Z,35.30
2023-02-24T01:35:20.288Z,35.30
2023-02-24T01:37:49.515Z,40.70
2023-02-24T01:40:18.752Z,41.20
2023-02-24T01:42:47.779Z,40.50
2023-02-24T01:47:51.705Z,43.10
2023-02-24T01:50:23.789Z,45.10
2023-02-24T01:52:58.880Z,44.20
2023-02-24T01:55:32.466Z,47.50
2023-02-24T01:58:04.975Z,44.50
2023-02-24T02:00:44.950Z,44.20
2023-02-24T02:03:20.753Z,44.30
2023-02-24T02:05:49.412Z,42.00
2023-02-24T02:08:19.307Z,45.30
2023-02-24T02:10:47.791Z,42.10
2023-02-24T02:13:21.472Z,42.70
2023-02-24T02:16:03.043Z,41.50
2023-02-24T02:18:41.625Z,39.80
2023-02-24T02:21:32.779Z,43.10
2023-02-24T02:24:04.734Z,42.60
2023-02-24T02:26:47.638Z,44.50
2023-02-24T02:29:30.751Z,46.30
2023-02-24T02:32:17.329Z,44.50
2023-02-24T02:34:59.547Z,43.20
2023-02-24T02:38:15.156Z,43.70
2023-02-24T02:41:22.451Z,41.40
2023-02-24T02:44:24.033Z,41.20
2023-02-24T02:47:23.108Z,40.10
2023-02-24T02:50:08.440Z,38.20
2023-02-24T02:53:05.901Z,36.00
2023-02-24T02:55:45.818Z,35.80
2023-02-24T02:58:20.609Z,34.80
2023-02-24T03:01:02.906Z,34.20
2023-02-24T03:03:40.500Z,33.30
2023-02-24T03:06:14.705Z,32.40
2023-02-24T03:08:52.541Z,29.90
2023-02-24T03:11:22.142Z,28.40
2023-02-24T03:13:54.438Z,28.80
2023-02-24T03:16:26.627Z,28.40
2023-02-24T03:19:03.829Z,26.80
2023-02-24T03:21:41.000Z,28.90
2023-02-24T03:24:10.034Z,29.70
2023-02-24T03:26:50.169Z,33.00
2023-02-24T03:29:32.420Z,30.90
2023-02-24T03:32:00.590Z,36.80
2023-02-24T03:34:59.677Z,32.40
2023-02-24T03:37:30.230Z,31.60
2023-02-24T03:40:07.489Z,31.50
2023-02-24T03:42:35.812Z,31.40
2023-02-24T03:45:06.451Z,31.80
2023-02-24T03:50:15.582Z,30.20
2023-02-24T03:53:17.695Z,33.30
2023-02-24T03:55:59.092Z,29.50
2023-02-24T03:59:04.811Z,30.40
2023-02-24T04:01:56.521Z,31.70
2023-02-24T04:04:50.056Z,29.40
2023-02-24T04:07:44.047Z,31.80
2023-02-24T04:10:21.686Z,29.50
2023-02-24T04:12:55.948Z,32.20
2023-02-24T04:15:37.899Z,33.90
2023-02-24T04:18:16.020Z,32.80
2023-02-24T04:20:51.276Z,32.60
2023-02-24T04:23:26.830Z,33.10
2023-02-24T04:25:58.260Z,29.10
2023-02-24T04:28:29.859Z,31.90
2023-02-24T04:31:06.335Z,31.20
2023-02-24T04:33:36.624Z,29.70
2023-02-24T04:36:05.268Z,30.80
2023-02-24T04:38:37.175Z,30.20
2023-02-24T04:41:05.442Z,32.80
2023-02-24T04:43:33.420Z,31.40
2023-02-24T04:46:07.638Z,32.00
2023-02-24T04:48:35.803Z,30.50
2023-02-24T04:51:06.803Z,31.60
2023-02-24T04:53:34.845Z,29.80
2023-02-24T04:56:08.893Z,31.60
2023-02-24T04:58:39.489Z,30.00
2023-02-24T05:01:12.625Z,31.30
2023-02-24T05:03:43.525Z,31.10
2023-02-24T05:06:16.681Z,34.00
2023-02-24T05:08:45.046Z,41.90
2023-02-24T05:11:16.209Z,34.20
2023-02-24T05:13:48.217Z,31.20
2023-02-24T05:16:20.562Z,30.30
2023-02-24T05:18:48.679Z,29.70
2023-02-24T05:21:35.707Z,28.80
2023-02-24T05:24:07.329Z,28.90
2023-02-24T05:26:37.542Z,29.30
2023-02-24T05:29:07.206Z,28.50
2023-02-24T05:31:35.652Z,29.50
2023-02-24T05:34:06.805Z,31.30
2023-02-24T05:36:40.804Z,30.40
2023-02-24T05:39:14.555Z,33.10
2023-02-24T05:41:43.459Z,34.70
2023-02-24T05:44:14.920Z,32.40
2023-02-24T05:46:47.096Z,32.60
2023-02-24T05:49:20.773Z,32.40
2023-02-24T05:51:55.852Z,31.20
2023-02-24T05:54:32.654Z,30.20
2023-02-24T05:57:06.769Z,32.10
2023-02-24T05:59:35.408Z,29.90
2023-02-24T06:02:07.572Z,28.90
2023-02-24T06:04:41.266Z,31.20
2023-02-24T06:07:19.437Z,34.30
2023-02-24T06:09:50.469Z,32.90
2023-02-24T06:12:18.835Z,34.40
2023-02-24T06:14:47.746Z,36.60
2023-02-24T06:17:17.131Z,36.30
2023-02-24T06:19:47.176Z,37.20
2023-02-24T06:22:19.113Z,36.20
2023-02-24T06:24:49.584Z,36.70
2023-02-24T06:27:20.050Z,35.10
2023-02-24T06:29:54.061Z,34.60
2023-02-24T06:32:25.360Z,33.90
2023-02-24T06:37:25.687Z,35.10
2023-02-24T06:39:53.766Z,37.50
2023-02-24T06:42:22.239Z,36.60
2023-02-24T06:44:50.955Z,39.50
2023-02-24T06:47:19.031Z,38.90
2023-02-24T06:49:48.061Z,39.60
2023-02-24T06:52:19.056Z,39.50
2023-02-24T06:54:49.051Z,40.20
2023-02-24T06:57:18.099Z,41.10
2023-02-24T06:59:46.347Z,39.30
2023-02-24T07:02:14.937Z,39.50
2023-02-24T07:04:46.184Z,39.60
2023-02-24T07:07:14.474Z,35.10
2023-02-24T07:09:42.803Z,34.40
2023-02-24T07:12:12.714Z,36.20
2023-02-24T07:14:40.981Z,35.20
2023-02-24T07:17:10.334Z,35.90
2023-02-24T07:19:38.478Z,36.10
2023-02-24T07:22:07.659Z,35.20
2023-02-24T07:24:37.449Z,32.70
2023-02-24T07:27:09.494Z,23.10
2023-02-24T07:29:38.245Z,14.60
2023-02-24T07:32:09.552Z,13.50
2023-02-24T07:34:41.102Z,12.60
2023-02-24T07:37:10.532Z,12.80
2023-02-24T07:39:39.965Z,12.90
2023-02-24T07:42:12.407Z,14.40
2023-02-24T07:44:49.275Z,12.30
2023-02-24T07:47:17.355Z,12.40
2023-02-24T07:49:45.902Z,12.30
2023-02-24T07:52:14.554Z,11.80
2023-02-24T07:54:43.222Z,11.40
2023-02-24T07:57:14.183Z,12.20
2023-02-24T07:59:45.123Z,12.10
2023-02-24T08:04:50.120Z,12.20
2023-02-24T08:07:25.232Z,12.40
2023-02-24T08:10:12.506Z,12.30
2023-02-24T08:12:45.461Z,12.00
2023-02-24T08:15:24.507Z,10.90
2023-02-24T08:17:57.430Z,12.10
2023-02-24T08:20:30.150Z,10.70
2023-02-24T08:22:58.516Z,11.50
2023-02-24T08:25:38.266Z,12.00
2023-02-24T08:28:11.900Z,12.10
2023-02-24T08:30:46.164Z,12.20
2023-02-24T08:33:22.165Z,12.00
2023-02-24T08:36:01.694Z,12.40
2023-02-24T08:38:41.805Z,12.80
2023-02-24T08:41:21.837Z,11.50
2023-02-24T08:43:50.193Z,10.70
2023-02-24T08:46:26.391Z,11.40
2023-02-24T08:49:00.184Z,11.30
2023-02-24T08:51:35.470Z,10.10
2023-02-24T08:54:15.625Z,11.70
2023-02-24T08:56:49.181Z,9.90
2023-02-24T08:59:37.920Z,11.30
2023-02-24T09:02:18.883Z,10.70
2023-02-24T09:04:51.724Z,10.40
2023-02-24T09:07:41.221Z,10.60
2023-02-24T09:10:18.288Z,11.40
2023-02-24T09:12:47.616Z,11.50
2023-02-24T09:15:15.981Z,12.00
2023-02-24T09:17:45.188Z,10.50
2023-02-24T09:20:28.081Z,10.10
2023-02-24T09:23:07.383Z,10.20
2023-02-24T09:25:45.231Z,10.80
2023-02-24T09:28:20.715Z,11.10
2023-02-24T09:30:55.167Z,10.50
2023-02-24T09:33:42.482Z,10.10
2023-02-24T09:36:28.338Z,11.20
2023-02-24T09:39:02.467Z,10.00
2023-02-24T09:41:54.332Z,11.10
2023-02-24T09:44:38.274Z,10.50
2023-02-24T09:47:20.024Z,10.80
2023-02-24T09:49:56.658Z,9.50
2023-02-24T09:52:40.944Z,10.10
2023-02-24T09:55:46.478Z,10.30
2023-02-24T09:58:48.893Z,10.70
2023-02-24T10:01:31.298Z,9.90
2023-02-24T10:04:20.329Z,10.50
2023-02-24T10:06:57.720Z,10.00
2023-02-24T10:09:33.552Z,10.30
2023-02-24T10:12:24.349Z,11.20
2023-02-24T10:15:18.967Z,10.80
2023-02-24T10:17:56.249Z,10.30
2023-02-24T10:20:39.564Z,10.30
2023-02-24T10:23:14.016Z,10.00
2023-02-24T10:25:56.177Z,10.80
2023-02-24T10:28:53.770Z,11.00
2023-02-24T10:31:27.085Z,10.30
2023-02-24T10:34:10.954Z,9.80
2023-02-24T10:36:40.796Z,8.60
2023-02-24T10:39:17.091Z,9.80
2023-02-24T10:41:57.417Z,9.40
2023-02-24T10:44:36.725Z,9.40
2023-02-24T10:47:12.614Z,9.80
2023-02-24T10:49:58.300Z,9.90
2023-02-24T10:52:37.508Z,9.10
2023-02-24T10:55:28.339Z,8.60
2023-02-24T11:01:01.325Z,8.90
2023-02-24T11:03:38.693Z,8.80
2023-02-24T11:06:30.624Z,9.20
2023-02-24T11:09:17.562Z,9.50
2023-02-24T11:12:05.394Z,9.60
2023-02-24T11:15:13.584Z,10.30
2023-02-24T11:17:56.985Z,8.80
2023-02-24T11:20:48.551Z,9.50
2023-02-24T11:23:24.267Z,10.90
2023-02-24T11:25:58.299Z,10.50
2023-02-24T11:28:43.800Z,11.70
2023-02-24T11:31:24.398Z,11.60
2023-02-24T11:36:44.940Z,10.00
2023-02-24T11:39:25.061Z,11.10
2023-02-24T11:41:57.490Z,11.70
2023-02-24T11:44:35.176Z,12.60
2023-02-24T11:47:09.685Z,11.80
2023-02-24T11:49:43.648Z,11.10
2023-02-24T11:52:29.641Z,11.00
2023-02-24T11:55:00.812Z,12.50
2023-02-24T11:57:48.454Z,13.50
2023-02-24T12:00:37.440Z,12.50
2023-02-24T12:03:18.346Z,12.00
2023-02-24T12:05:54.920Z,11.90
2023-02-24T12:08:34.775Z,11.30
2023-02-24T12:11:21.848Z,11.70
2023-02-24T12:14:03.314Z,12.30
2023-02-24T12:16:35.791Z,11.40
2023-02-24T12:19:19.991Z,11.60
2023-02-24T12:21:56.048Z,12.20
2023-02-24T12:24:24.290Z,10.30
2023-02-24T12:26:55.779Z,11.40
2023-02-24T12:30:06.889Z,10.90
2023-02-24T12:32:57.588Z,10.60
2023-02-24T12:35:54.160Z,10.60
2023-02-24T12:38:44.290Z,10.60
2023-02-24T12:41:40.740Z,11.90
2023-02-24T12:44:31.710Z,10.20
2023-02-24T12:47:11.813Z,12.60
2023-02-24T12:50:00.762Z,10.50
2023-02-24T12:52:40.946Z,11.20
2023-02-24T12:55:19.234Z,12.20
2023-02-24T12:58:02.366Z,13.30
2023-02-24T13:00:43.396Z,14.20
2023-02-24T13:03:14.060Z,11.60
2023-02-24T13:10:57.577Z,11.70
2023-02-24T13:13:50.428Z,12.80
2023-02-24T13:16:29.801Z,13.10
2023-02-24T13:19:06.976Z,12.20
2023-02-24T13:21:35.091Z,12.00
2023-02-24T13:24:03.448Z,11.80
2023-02-24T13:26:32.646Z,12.80
2023-02-24T13:29:14.118Z,11.60
2023-02-24T13:32:35.156Z,10.00
2023-02-24T13:35:06.862Z,15.40
2023-02-24T13:37:38.098Z,13.60
2023-02-24T13:40:18.290Z,13.20
2023-02-24T13:43:01.384Z,13.40
2023-02-24T13:45:33.810Z,14.90
2023-02-24T13:48:39.488Z,14.00
2023-02-24T13:51:24.060Z,12.50
2023-02-24T13:54:23.277Z,14.30
2023-02-24T13:56:57.334Z,14.90
2023-02-24T13:59:34.822Z,13.50
2023-02-24T14:02:14.879Z,13.80
2023-02-24T14:04:50.573Z,12.80
2023-02-24T14:07:39.909Z,11.70
2023-02-24T14:10:19.398Z,12.10
2023-02-24T14:12:49.698Z,12.30
2023-02-24T14:15:25.591Z,10.40
2023-02-24T14:18:04.898Z,13.00
2023-02-24T14:20:35.380Z,12.70
2023-02-24T14:23:24.253Z,13.70
2023-02-24T14:25:57.483Z,13.00
2023-02-24T14:28:30.673Z,10.50
2023-02-24T14:31:08.415Z,12.50
2023-02-24T14:33:39.086Z,13.40
2023-02-24T14:39:14.365Z,12.60
2023-02-24T14:41:43.268Z,11.30
2023-02-24T14:44:28.674Z,13.50
2023-02-24T14:47:05.154Z,13.70
2023-02-24T14:49:35.372Z,13.30
2023-02-24T14:52:06.500Z,12.00
2023-02-24T14:54:47.555Z,12.10
2023-02-24T14:57:22.861Z,15.40
2023-02-24T14:59:58.705Z,13.70
2023-02-24T15:02:33.337Z,14.10
2023-02-24T15:05:01.623Z,13.90
2023-02-24T15:07:33.706Z,13.20
2023-02-24T15:10:03.055Z,13.90
2023-02-24T15:12:43.163Z,14.30
2023-02-24T15:15:23.710Z,13.60
2023-02-24T15:17:56.359Z,13.70
2023-02-24T15:20:40.170Z,14.30
2023-02-24T15:23:29.380Z,14.40
2023-02-24T15:25:57.476Z,14.50
2023-02-24T15:28:31.123Z,13.20
2023-02-24T15:31:18.139Z,13.00
2023-02-24T15:33:55.561Z,13.40
2023-02-24T15:36:27.138Z,13.70
2023-02-24T15:39:07.132Z,13.50
2023-02-24T15:41:41.098Z,12.10
2023-02-24T15:44:31.541Z,12.70
2023-02-24T15:47:12.747Z,12.50
2023-02-24T15:49:41.010Z,13.60
2023-02-24T15:52:10.822Z,13.20
2023-02-24T15:54:42.461Z,13.50
2023-02-24T15:57:14.722Z,14.20
2023-02-24T15:59:43.165Z,13.40
2023-02-24T16:02:19.853Z,12.80
2023-02-24T16:04:48.848Z,13.00
2023-02-24T16:07:24.739Z,14.40
2023-02-24T16:09:54.848Z,13.50
2023-02-24T16:12:32.131Z,13.80
2023-02-24T16:15:03.047Z,14.20
2023-02-24T16:17:38.985Z,14.80
2023-02-24T16:20:16.699Z,13.90
2023-02-24T16:22:44.877Z,13.00
2023-02-24T16:25:16.748Z,14.80
2023-02-24T16:27:44.764Z,15.80
2023-02-24T16:30:20.830Z,15.90
2023-02-24T16:32:50.802Z,18.90
2023-02-24T16:35:19.883Z,18.20
2023-02-24T16:37:49.172Z,15.80
2023-02-24T16:40:26.273Z,14.90
2023-02-24T16:42:54.551Z,15.30
2023-02-24T16:45:26.801Z,13.70
2023-02-24T16:47:57.284Z,14.00
2023-02-24T16:50:39.563Z,15.30
2023-02-24T16:53:08.921Z,16.10
2023-02-24T16:55:37.474Z,16.50
2023-02-24T16:58:05.335Z,16.30
2023-02-24T17:00:33.408Z,18.20
2023-02-24T17:03:06.103Z,19.30
2023-02-24T17:05:34.308Z,19.40
2023-02-24T17:08:02.348Z,20.80
2023-02-24T17:10:31.700Z,19.70
2023-02-24T17:12:59.803Z,18.70
2023-02-24T17:15:27.841Z,19.20
2023-02-24T17:17:55.973Z,18.60
2023-02-24T17:20:24.189Z,18.10
2023-02-24T17:22:52.395Z,17.90
2023-02-24T17:25:27.055Z,16.90
2023-02-24T17:27:56.613Z,16.50
2023-02-24T17:30:30.834Z,18.00
2023-02-24T17:32:59.890Z,19.50
2023-02-24T17:35:28.819Z,18.70
2023-02-24T17:37:57.108Z,19.30
2023-02-24T17:40:25.289Z,17.50
2023-02-24T17:42:53.213Z,18.00
2023-02-24T17:45:21.525Z,18.00
2023-02-24T17:47:49.640Z,18.80
2023-02-24T17:50:17.754Z,21.60
2023-02-24T17:52:46.171Z,23.40
2023-02-24T17:55:14.331Z,23.00
2023-02-24T17:57:43.297Z,21.10
2023-02-24T18:00:12.909Z,20.00
2023-02-24T18:02:41.274Z,18.10
2023-02-24T18:05:10.162Z,18.10
2023-02-24T18:07:38.576Z,18.30
2023-02-24T18:10:07.553Z,16.50
2023-02-24T18:12:35.468Z,15.60
2023-02-24T18:15:09.589Z,15.90
2023-02-24T18:17:38.986Z,14.80
2023-02-24T18:20:08.351Z,17.00
2023-02-24T18:22:36.453Z,15.20
2023-02-24T18:25:05.326Z,15.00
2023-02-24T18:27:33.696Z,15.10
2023-02-24T18:30:01.740Z,15.50
2023-02-24T18:32:29.820Z,15.10
2023-02-24T18:34:57.970Z,15.30
2023-02-24T18:37:25.823Z,14.90
2023-02-24T18:39:54.141Z,13.60
2023-02-24T18:42:22.175Z,15.60
2023-02-24T18:44:50.011Z,14.30
2023-02-24T18:47:18.061Z,14.80
2023-02-24T18:49:46.102Z,14.20
2023-02-24T18:52:13.932Z,14.70
2023-02-24T18:54:41.871Z,14.60
2023-02-24T18:57:10.203Z,14.00
2023-02-24T18:59:38.254Z,15.30
2023-02-24T19:02:06.339Z,14.70
2023-02-24T19:04:34.896Z,13.20
2023-02-24T19:07:03.259Z,14.70
2023-02-24T19:09:31.217Z,14.60
2023-02-24T19:11:59.140Z,14.40
2023-02-24T19:14:27.581Z,13.70
2023-02-24T19:16:55.798Z,13.60
2023-02-24T19:19:24.164Z,14.00
2023-02-24T19:21:52.454Z,14.60
2023-02-24T19:24:20.770Z,14.60
2023-02-24T19:26:51.239Z,13.60
2023-02-24T19:29:20.536Z,13.70
2023-02-24T19:31:54.075Z,12.80
2023-02-24T19:34:22.711Z,13.30
2023-02-24T19:36:50.843Z,12.50
2023-02-24T19:39:18.838Z,13.40
2023-02-24T19:41:49.468Z,12.90
2023-02-24T19:44:17.754Z,13.70
2023-02-24T19:46:45.869Z,14.40
2023-02-24T19:49:14.391Z,14.20
2023-02-24T19:51:43.601Z,13.10
2023-02-24T19:54:12.647Z,12.20
2023-02-24T19:56:40.474Z,12.50
2023-02-24T19:59:08.984Z,12.00
2023-02-24T20:01:36.936Z,13.60
2023-02-24T20:04:06.073Z,13.50
2023-02-24T20:06:39.731Z,13.80
2023-02-24T20:09:17.374Z,13.40
2023-02-24T20:11:46.149Z,13.40
2023-02-24T20:14:16.750Z,12.60
2023-02-24T20:16:45.398Z,12.90
2023-02-24T20:19:14.982Z,13.40
2023-02-24T20:21:43.247Z,10.50
2023-02-24T20:24:14.604Z,11.40
2023-02-24T20:26:47.144Z,11.50
2023-02-24T20:29:16.983Z,13.30
2023-02-24T20:31:46.410Z,12.60
2023-02-24T20:34:16.594Z,10.70
2023-02-24T20:36:44.758Z,10.80
2023-02-24T20:39:12.844Z,12.70
2023-02-24T20:41:41.898Z,12.80
2023-02-24T20:44:11.188Z,12.60
2023-02-24T20:46:39.112Z,12.30
2023-02-24T20:49:10.517Z,12.20
2023-02-24T20:51:39.086Z,12.50
2023-02-24T20:54:10.260Z,11.90
2023-02-24T20:56:40.863Z,11.30
2023-02-24T21:01:39.860Z,10.80
2023-02-24T21:04:08.798Z,11.50
2023-02-24T21:06:37.134Z,8.40
2023-02-24T21:09:05.705Z,11.10
2023-02-24T21:11:34.673Z,9.10
2023-02-24T21:14:03.077Z,8.60
2023-02-24T21:16:31.037Z,10.80
2023-02-24T21:18:59.593Z,10.10
2023-02-24T21:21:27.729Z,11.60
2023-02-24T21:23:56.740Z,10.10
2023-02-24T21:26:26.984Z,11.30
2023-02-24T21:28:57.793Z,10.60
2023-02-24T21:31:27.492Z,10.10
2023-02-24T21:33:56.268Z,12.20
2023-02-24T21:36:26.239Z,11.20
2023-02-24T21:38:55.263Z,11.00
2023-02-24T21:41:23.872Z,11.30
2023-02-24T21:43:55.231Z,11.60
2023-02-24T21:46:28.121Z,11.90
2023-02-24T21:48:58.646Z,11.80
2023-02-24T21:51:28.229Z,12.30
2023-02-24T21:53:57.310Z,12.10
2023-02-24T21:56:30.222Z,12.50
2023-02-24T21:59:09.233Z,7.10
2023-02-24T22:01:40.743Z,12.40
2023-02-24T22:04:12.221Z,11.20
2023-02-24T22:06:41.996Z,11.60
2023-02-24T22:09:11.379Z,12.30
2023-02-24T22:11:41.061Z,13.20
2023-02-24T22:14:10.837Z,12.80
2023-02-24T22:16:40.029Z,11.70
2023-02-24T22:19:08.289Z,15.80
2023-02-24T22:21:36.619Z,13.20
2023-02-24T22:24:04.841Z,14.00
2023-02-24T22:26:33.204Z,12.90
2023-02-24T22:29:01.466Z,12.90
2023-02-24T22:31:32.142Z,12.80
2023-02-24T22:36:33.769Z,12.90
2023-02-24T22:39:02.437Z,13.40
2023-02-24T22:41:34.125Z,14.70
2023-02-24T22:44:04.926Z,14.10
2023-02-24T22:46:35.376Z,13.50
2023-02-24T22:49:04.183Z,13.90
2023-02-24T22:51:32.382Z,14.50
2023-02-24T22:54:01.213Z,14.30
2023-02-24T22:56:30.227Z,14.20
2023-02-24T22:58:59.402Z,13.20
2023-02-24T23:01:32.932Z,13.90
2023-02-24T23:04:03.677Z,14.20
2023-02-24T23:09:01.792Z,12.20
2023-02-24T23:11:32.534Z,12.50
2023-02-24T23:14:03.745Z,13.20
2023-02-24T23:16:35.288Z,11.60
2023-02-24T23:19:06.452Z,11.70
2023-02-24T23:21:46.124Z,11.30
2023-02-24T23:24:16.166Z,12.50
2023-02-24T23:26:45.676Z,12.60
2023-02-24T23:29:17.398Z,11.10
2023-02-24T23:31:46.028Z,11.60
2023-02-24T23:34:14.911Z,8.90
2023-02-24T23:36:45.957Z,12.30
2023-02-24T23:39:16.460Z,11.20
2023-02-24T23:41:44.890Z,10.80
2023-02-24T23:44:12.802Z,10.30
2023-02-24T23:46:41.920Z,11.30
2023-02-24T23:49:09.913Z,10.60
2023-02-24T23:51:48.137Z,10.40
2023-02-24T23:54:18.538Z,11.10
2023-02-24T23:56:46.820Z,10.80
2023-02-24T23:59:15.233Z,9.80
